createdAt,value
2023-03-22T00:01:15.776Z,14.76
2023-03-22T00:03:42.955Z,14.74
2023-03-22T00:06:10.347Z,14.69
2023-03-22T00:08:37.625Z,14.67
2023-03-22T00:11:05.558Z,14.65
2023-03-22T00:13:35.446Z,14.63
2023-03-22T00:16:02.917Z,14.61
2023-03-22T00:18:31.360Z,14.59
2023-03-22T00:20:59.592Z,14.60
2023-03-22T00:23:26.937Z,14.60
2023-03-22T00:25:53.824Z,14.61
2023-03-22T00:28:20.749Z,14.60
2023-03-22T00:30:59.561Z,14.54
2023-03-22T00:33:31.251Z,14.56
2023-03-22T00:36:07.082Z,14.50
2023-03-22T00:38:44.979Z,14.46
2023-03-22T00:41:13.691Z,14.40
2023-03-22T00:43:41.168Z,14.38
2023-03-22T00:46:08.348Z,14.35
2023-03-22T00:48:35.414Z,14.30
2023-03-22T00:51:02.326Z,14.25
2023-03-22T00:53:33.060Z,14.22
2023-03-22T00:56:00.356Z,14.17
2023-03-22T00:58:30.249Z,14.11
2023-03-22T01:00:57.081Z,14.04
2023-03-22T01:03:24.757Z,13.95
2023-03-22T01:05:56.761Z,13.91
2023-03-22T01:08:24.569Z,13.89
2023-03-22T01:10:51.755Z,13.85
2023-03-22T01:13:18.734Z,13.86
2023-03-22T01:15:47.878Z,13.89
2023-03-22T01:18:15.292Z,13.91
2023-03-22T01:20:42.224Z,13.93
2023-03-22T01:23:09.205Z,13.96
2023-03-22T01:25:36.217Z,13.91
2023-03-22T01:28:02.941Z,13.86
2023-03-22T01:30:30.607Z,13.88
2023-03-22T01:32:57.436Z,13.87
2023-03-22T01:35:24.401Z,13.84
2023-03-22T01:37:51.357Z,13.84
2023-03-22T01:40:19.712Z,13.82
2023-03-22T01:42:47.276Z,13.78
2023-03-22T01:45:42.326Z,13.61
2023-03-22T01:48:34.616Z,13.59
2023-03-22T01:51:11.968Z,13.71
2023-03-22T01:54:03.629Z,13.68
2023-03-22T01:56:34.734Z,13.76
2023-03-22T01:59:03.093Z,13.82
2023-03-22T02:01:47.073Z,13.84
2023-03-22T02:04:23.449Z,13.88
2023-03-22T02:06:54.825Z,13.94
2023-03-22T02:09:23.156Z,13.97
2023-03-22T02:12:08.313Z,13.92
2023-03-22T02:15:06.895Z,13.86
2023-03-22T02:18:11.604Z,13.86
2023-03-22T02:21:06.259Z,13.79
2023-03-22T02:24:23.801Z,13.65
2023-03-22T02:26:59.724Z,13.71
2023-03-22T02:29:33.107Z,13.74
2023-03-22T02:32:24.513Z,13.74
2023-03-22T02:35:14.368Z,13.74
2023-03-22T02:37:44.267Z,13.79
2023-03-22T02:40:38.900Z,13.78
2023-03-22T02:43:15.495Z,13.84
2023-03-22T02:46:11.860Z,13.81
2023-03-22T02:49:16.663Z,13.81
2023-03-22T02:52:02.227Z,13.80
2023-03-22T02:54:37.327Z,13.85
2023-03-22T02:57:14.278Z,13.87
2023-03-22T02:59:42.771Z,13.91
2023-03-22T03:02:14.300Z,13.90
2023-03-22T03:04:46.380Z,13.86
2023-03-22T03:07:19.291Z,13.86
2023-03-22T03:09:48.118Z,13.86
2023-03-22T03:12:20.283Z,13.83
2023-03-22T03:14:47.762Z,13.85
2023-03-22T03:17:26.704Z,13.81
2023-03-22T03:20:13.790Z,13.81
2023-03-22T03:22:43.550Z,13.81
2023-03-22T03:25:18.350Z,13.80
2023-03-22T03:27:52.418Z,13.78
2023-03-22T03:30:35.375Z,13.77
2023-03-22T03:33:09.407Z,13.78
2023-03-22T03:36:03.616Z,13.79
2023-03-22T03:38:36.482Z,13.76
2023-03-22T03:41:09.897Z,13.78
2023-03-22T03:43:37.376Z,13.78
2023-03-22T03:46:04.923Z,13.80
2023-03-22T03:48:34.905Z,13.76
2023-03-22T03:51:03.090Z,13.77
2023-03-22T03:53:30.685Z,13.80
2023-03-22T03:55:57.821Z,13.81
2023-03-22T03:58:27.422Z,13.82
2023-03-22T04:00:54.401Z,13.83
2023-03-22T04:03:36.511Z,13.85
2023-03-22T04:06:11.923Z,13.85
2023-03-22T04:08:45.577Z,13.82
2023-03-22T04:11:14.807Z,13.83
2023-03-22T04:13:43.004Z,13.81
2023-03-22T04:16:15.041Z,13.82
2023-03-22T04:18:41.975Z,13.81
2023-03-22T04:21:11.867Z,13.83
2023-03-22T04:23:46.941Z,13.84
2023-03-22T04:26:14.461Z,13.85
2023-03-22T04:28:53.033Z,13.84
2023-03-22T04:31:20.310Z,13.85
2023-03-22T04:33:55.146Z,13.86
2023-03-22T04:36:42.001Z,13.83
2023-03-22T04:39:17.325Z,13.83
2023-03-22T04:41:53.356Z,13.80
2023-03-22T04:44:20.648Z,13.82
2023-03-22T04:46:50.314Z,13.79
2023-03-22T04:49:17.679Z,13.79
2023-03-22T04:51:44.500Z,13.76
2023-03-22T04:54:32.698Z,13.69
2023-03-22T04:57:01.010Z,13.73
2023-03-22T04:59:30.973Z,13.69
2023-03-22T05:01:59.363Z,13.68
2023-03-22T05:04:29.860Z,13.69
2023-03-22T05:07:02.901Z,13.38
2023-03-22T05:09:43.807Z,13.64
2023-03-22T05:12:11.543Z,13.69
2023-03-22T05:14:58.588Z,13.74
2023-03-22T05:17:30.923Z,13.73
2023-03-22T05:20:00.768Z,13.64
2023-03-22T05:22:27.536Z,13.58
2023-03-22T05:24:55.428Z,13.52
2023-03-22T05:27:31.776Z,13.49
2023-03-22T05:30:17.653Z,13.41
2023-03-22T05:32:59.824Z,13.45
2023-03-22T05:35:27.937Z,13.49
2023-03-22T05:38:00.139Z,13.50
2023-03-22T05:40:31.755Z,13.47
2023-03-22T05:42:58.734Z,13.51
2023-03-22T05:45:27.618Z,13.62
2023-03-22T05:48:12.724Z,13.61
2023-03-22T05:50:41.111Z,13.64
2023-03-22T05:53:08.620Z,13.69
2023-03-22T05:56:01.961Z,13.58
2023-03-22T05:58:33.959Z,13.60
2023-03-22T06:01:16.483Z,13.60
2023-03-22T06:03:46.205Z,13.64
2023-03-22T06:06:21.052Z,13.61
2023-03-22T06:09:10.414Z,13.61
2023-03-22T06:11:43.077Z,13.50
2023-03-22T06:14:10.025Z,13.35
2023-03-22T06:17:02.941Z,13.29
2023-03-22T06:19:34.616Z,13.35
2023-03-22T06:22:04.343Z,13.40
2023-03-22T06:24:33.960Z,13.28
2023-03-22T06:27:03.116Z,13.26
2023-03-22T06:29:30.997Z,13.32
2023-03-22T06:32:01.570Z,13.48
2023-03-22T06:34:31.486Z,13.56
2023-03-22T06:36:58.534Z,13.73
2023-03-22T06:39:33.692Z,13.83
2023-03-22T06:42:00.512Z,13.86
2023-03-22T06:44:28.668Z,13.84
2023-03-22T06:47:18.321Z,14.03
2023-03-22T06:49:45.251Z,14.13
2023-03-22T06:52:18.664Z,14.20
2023-03-22T06:54:45.452Z,14.24
2023-03-22T06:57:12.400Z,14.26
2023-03-22T06:59:39.452Z,14.27
2023-03-22T07:02:06.408Z,14.45
2023-03-22T07:04:34.314Z,14.57
2023-03-22T07:07:01.100Z,14.50
2023-03-22T07:09:28.269Z,14.49
2023-03-22T07:11:58.568Z,14.49
2023-03-22T07:14:26.749Z,14.70
2023-03-22T07:17:08.625Z,14.74
2023-03-22T07:19:36.924Z,14.77
2023-03-22T07:22:08.168Z,14.75
2023-03-22T07:24:47.284Z,14.71
2023-03-22T07:27:23.150Z,14.68
2023-03-22T07:29:50.375Z,14.92
2023-03-22T07:32:17.272Z,15.12
2023-03-22T07:35:05.563Z,15.05
2023-03-22T07:37:32.342Z,15.30
2023-03-22T07:40:01.849Z,15.60
2023-03-22T07:42:31.744Z,15.83
2023-03-22T07:45:37.088Z,16.04
2023-03-22T07:48:23.646Z,16.15
2023-03-22T07:51:07.849Z,16.25
2023-03-22T07:53:36.709Z,16.37
2023-03-22T07:56:04.834Z,16.66
2023-03-22T07:58:31.747Z,16.96
2023-03-22T08:01:03.557Z,17.01
2023-03-22T08:03:51.162Z,17.24
2023-03-22T08:06:33.333Z,17.61
2023-03-22T08:09:01.600Z,17.54
2023-03-22T08:11:30.092Z,17.74
2023-03-22T08:13:58.994Z,17.93
2023-03-22T08:16:25.926Z,17.84
2023-03-22T08:18:52.949Z,17.60
2023-03-22T08:21:21.669Z,17.60
2023-03-22T08:23:52.894Z,17.63
2023-03-22T08:26:34.851Z,17.99
2023-03-22T08:29:14.662Z,18.57
2023-03-22T08:31:47.252Z,19.21
2023-03-22T08:34:14.191Z,19.72
2023-03-22T08:36:41.643Z,19.98
2023-03-22T08:39:09.801Z,19.96
2023-03-22T08:41:55.101Z,19.59
2023-03-22T08:44:24.585Z,19.40
2023-03-22T08:46:51.616Z,19.41
2023-03-22T08:49:18.493Z,19.57
2023-03-22T08:51:55.184Z,19.80
2023-03-22T08:54:48.468Z,20.04
2023-03-22T08:57:33.886Z,20.28
2023-03-22T09:00:45.778Z,20.37
2023-03-22T09:03:28.316Z,20.37
2023-03-22T09:05:55.178Z,20.33
2023-03-22T09:08:22.120Z,20.22
2023-03-22T09:10:55.856Z,20.14
2023-03-22T09:13:23.232Z,20.17
2023-03-22T09:15:58.387Z,20.22
2023-03-22T09:18:30.905Z,20.35
2023-03-22T09:21:01.043Z,20.68
2023-03-22T09:23:38.018Z,20.72
2023-03-22T09:26:08.342Z,20.85
2023-03-22T09:28:36.763Z,20.92
2023-03-22T09:31:08.295Z,20.95
2023-03-22T09:33:36.547Z,21.03
2023-03-22T09:36:04.311Z,21.10
2023-03-22T09:38:33.633Z,21.16
2023-03-22T09:41:07.548Z,21.12
2023-03-22T09:43:39.438Z,21.23
2023-03-22T09:46:18.087Z,21.34
2023-03-22T09:48:49.463Z,21.40
2023-03-22T09:51:40.079Z,21.36
2023-03-22T09:54:22.197Z,21.29
2023-03-22T09:57:31.877Z,21.12
2023-03-22T10:00:20.952Z,21.09
2023-03-22T10:03:17.196Z,21.24
2023-03-22T10:06:08.145Z,20.82
2023-03-22T10:09:02.112Z,20.97
2023-03-22T10:12:05.495Z,21.16
2023-03-22T10:14:38.705Z,21.28
2023-03-22T10:17:16.654Z,21.42
2023-03-22T10:20:28.706Z,21.29
2023-03-22T10:22:57.708Z,21.13
2023-03-22T10:25:36.765Z,20.91
2023-03-22T10:28:30.093Z,20.76
2023-03-22T10:30:59.007Z,20.55
2023-03-22T10:33:39.429Z,20.33
2023-03-22T10:36:15.257Z,20.15
2023-03-22T10:38:53.157Z,19.86
2023-03-22T10:41:22.096Z,19.77
2023-03-22T10:43:52.515Z,19.74
2023-03-22T10:46:26.458Z,19.67
2023-03-22T10:49:02.365Z,19.65
2023-03-22T10:51:37.303Z,19.71
2023-03-22T10:54:05.750Z,19.82
2023-03-22T10:56:34.598Z,19.94
2023-03-22T10:59:01.470Z,20.06
2023-03-22T11:01:34.085Z,20.11
2023-03-22T11:04:09.285Z,19.94
2023-03-22T11:06:53.344Z,19.88
2023-03-22T11:09:24.361Z,19.78
2023-03-22T11:11:59.138Z,19.72
2023-03-22T11:14:37.262Z,19.63
2023-03-22T11:17:06.658Z,19.62
2023-03-22T11:19:55.349Z,19.57
2023-03-22T11:22:44.344Z,19.66
2023-03-22T11:25:17.227Z,19.86
2023-03-22T11:27:56.399Z,19.92
2023-03-22T11:30:28.879Z,20.12
2023-03-22T11:33:18.550Z,20.13
2023-03-22T11:35:47.992Z,20.37
2023-03-22T11:38:31.329Z,20.33
2023-03-22T11:41:02.433Z,19.98
2023-03-22T11:43:40.889Z,20.28
2023-03-22T11:46:11.066Z,20.49
2023-03-22T11:48:40.888Z,20.64
2023-03-22T11:51:14.087Z,20.61
2023-03-22T11:53:47.036Z,20.66
2023-03-22T11:56:22.346Z,20.43
2023-03-22T11:59:05.144Z,20.71
2023-03-22T12:01:49.132Z,20.76
2023-03-22T12:04:22.822Z,20.92
2023-03-22T12:06:52.715Z,21.12
2023-03-22T12:09:32.070Z,21.26
2023-03-22T12:12:02.381Z,21.53
2023-03-22T12:14:52.614Z,21.69
2023-03-22T12:17:50.385Z,21.71
2023-03-22T12:20:23.695Z,21.88
2023-03-22T12:22:55.336Z,21.97
2023-03-22T12:25:35.032Z,21.92
2023-03-22T12:28:14.339Z,22.01
2023-03-22T12:30:48.030Z,22.10
2023-03-22T12:33:17.803Z,22.25
2023-03-22T12:35:46.692Z,22.28
2023-03-22T12:38:48.796Z,22.11
2023-03-22T12:41:22.048Z,21.96
2023-03-22T12:44:01.500Z,21.87
2023-03-22T12:46:35.714Z,21.88
2023-03-22T12:49:33.135Z,21.84
2023-03-22T12:52:12.165Z,21.87
2023-03-22T12:54:39.902Z,21.79
2023-03-22T12:57:08.116Z,21.79
2023-03-22T12:59:36.160Z,21.72
2023-03-22T13:02:19.658Z,21.67
2023-03-22T13:04:56.892Z,21.25
2023-03-22T13:07:47.171Z,21.08
2023-03-22T13:10:47.277Z,20.87
2023-03-22T13:13:17.330Z,20.89
2023-03-22T13:16:01.574Z,20.65
2023-03-22T13:18:38.403Z,20.71
2023-03-22T13:21:19.301Z,20.60
2023-03-22T13:24:15.539Z,20.63
2023-03-22T13:26:54.384Z,20.71
2023-03-22T13:29:54.144Z,20.76
2023-03-22T13:32:33.619Z,20.99
2023-03-22T13:35:01.679Z,21.15
2023-03-22T13:37:46.074Z,21.16
2023-03-22T13:40:33.029Z,21.30
2023-03-22T13:43:17.448Z,21.26
2023-03-22T13:46:11.846Z,21.20
2023-03-22T13:48:52.071Z,21.25
2023-03-22T13:51:21.972Z,21.23
2023-03-22T13:54:23.973Z,21.14
2023-03-22T13:57:00.215Z,20.97
2023-03-22T13:59:34.025Z,20.81
2023-03-22T14:02:27.639Z,20.72
2023-03-22T14:05:18.477Z,20.68
2023-03-22T14:07:56.355Z,20.65
2023-03-22T14:10:44.741Z,20.68
2023-03-22T14:13:28.786Z,20.58
2023-03-22T14:15:59.930Z,20.65
2023-03-22T14:18:31.897Z,20.67
2023-03-22T14:21:03.457Z,20.61
